Time;durP1;ratioP1;P1;durP2;ratioP2;P2;SDS_P1;SDS_P2;PMS_P1;PMS_P2;Temp;Humidity;BMP_temperature;BMP_pressure;BME280_temperature;BME280_humidity;BME280_pressure;Samples;Min_cycle;Max_cycle;Signal;HPM_P1;HPM_P2
2023/03/04 00:00:45;;;;;;;14.75;2.78;;;5.90;82.50;;;;;;5032732;28;20064;-45
2023/03/04 00:03:14;;;;;;;16.80;3.33;;;6.00;82.30;;;;;;5033435;28;20107;-46
2023/03/04 00:05:44;;;;;;;8.57;2.08;;;6.00;82.80;;;;;;5033510;28;20018;-46
2023/03/04 00:08:09;;;;;;;;;;;5.90;83.00;;;;;;5067382;28;20451;-46
2023/03/04 00:10:40;;;;;;;13.68;2.80;;;6.00;82.80;;;;;;5051903;28;19909;-47
2023/03/04 00:13:07;;;;;;;11.98;2.08;;;6.00;83.70;;;;;;5052199;28;20036;-46
2023/03/04 00:15:34;;;;;;;16.95;2.92;;;6.00;84.00;;;;;;5052613;28;20028;-46
2023/03/04 00:18:04;;;;;;;8.55;2.10;;;5.90;83.10;;;;;;5051453;28;20102;-45
2023/03/04 00:20:32;;;;;;;13.95;2.17;;;6.00;82.60;;;;;;5042734;28;20374;-48
2023/03/04 00:22:58;;;;;;;16.33;2.10;;;5.90;82.50;;;;;;5033673;28;20033;-45
2023/03/04 00:25:25;;;;;;;13.35;2.20;;;5.90;82.60;;;;;;5065039;28;20400;-45
2023/03/04 00:27:52;;;;;;;13.25;2.67;;;5.90;82.80;;;;;;5032845;28;20041;-48
2023/03/04 00:30:22;;;;;;;10.98;3.13;;;5.90;83.00;;;;;;5053176;28;20500;-45
2023/03/04 00:32:49;;;;;;;;;;;5.90;83.00;;;;;;5053802;28;20045;-47
2023/03/04 00:35:16;;;;;;;10.43;1.52;;;5.90;83.10;;;;;;5052833;28;19909;-46
2023/03/04 00:37:43;;;;;;;6.97;1.60;;;5.90;82.40;;;;;;5032329;28;20037;-45
2023/03/04 00:40:10;;;;;;;10.13;2.53;;;6.00;82.00;;;;;;5047022;28;20496;-46
2023/03/04 00:42:38;;;;;;;10.57;1.98;;;6.00;82.10;;;;;;5037721;28;20037;-46
2023/03/04 00:45:09;;;;;;;14.23;2.03;;;6.00;81.90;;;;;;5033055;28;20025;-46
2023/03/04 00:47:37;;;;;;;10.95;2.08;;;6.00;81.80;;;;;;5048108;28;20033;-46
2023/03/04 00:50:03;;;;;;;11.05;1.77;;;6.00;82.10;;;;;;5052812;28;20075;-47
2023/03/04 00:52:30;;;;;;;12.98;1.63;;;6.00;82.30;;;;;;5034888;28;20366;-45
2023/03/04 00:54:59;;;;;;;13.48;2.17;;;6.00;82.80;;;;;;5050243;28;20032;-47
2023/03/04 00:57:26;;;;;;;11.80;2.03;;;6.00;83.30;;;;;;5052513;28;20035;-45
2023/03/04 00:59:53;;;;;;;8.27;2.08;;;5.90;83.70;;;;;;5053080;28;20017;-46
2023/03/04 01:02:19;;;;;;;21.70;3.38;;;5.90;84.20;;;;;;5051856;28;20053;-45
2023/03/04 01:04:52;;;;;;;14.48;1.85;;;5.90;84.60;;;;;;5047096;28;20073;-45
2023/03/04 01:07:20;;;;;;;10.85;2.63;;;5.90;84.60;;;;;;5033115;28;20034;-45
2023/03/04 01:09:46;;;;;;;12.00;1.98;;;5.90;84.50;;;;;;5039738;28;20017;-45
2023/03/04 01:12:15;;;;;;;11.27;2.60;;;5.90;84.50;;;;;;5046018;28;20040;-46
2023/03/04 01:14:42;;;;;;;7.82;1.67;;;5.90;84.60;;;;;;5037123;28;20032;-46
2023/03/04 01:17:11;;;;;;;19.45;2.80;;;5.90;84.80;;;;;;5051784;28;20029;-46
2023/03/04 01:19:37;;;;;;;12.37;2.70;;;5.90;85.00;;;;;;5051842;28;20021;-47
2023/03/04 01:22:04;;;;;;;9.50;2.30;;;5.90;85.30;;;;;;5051744;28;20788;-47
2023/03/04 01:24:35;;;;;;;15.52;3.95;;;5.90;85.50;;;;;;5051068;28;20061;-46
2023/03/04 01:27:03;;;;;;;14.45;2.53;;;5.90;85.70;;;;;;5052147;28;20025;-46
2023/03/04 01:29:29;;;;;;;18.77;2.83;;;5.80;85.90;;;;;;5047460;28;20028;-46
2023/03/04 01:31:56;;;;;;;9.95;3.10;;;5.90;85.90;;;;;;5031690;28;20048;-49
2023/03/04 01:34:24;;;;;;;18.95;2.38;;;5.80;86.00;;;;;;5033067;28;20346;-46
2023/03/04 01:36:51;;;;;;;13.05;2.08;;;5.80;86.00;;;;;;5048580;28;20033;-46
2023/03/04 01:39:19;;;;;;;14.30;2.92;;;5.80;85.90;;;;;;5050880;28;20102;-45
2023/03/04 01:41:49;;;;;;;13.98;2.30;;;5.80;85.90;;;;;;5050786;28;20567;-49
2023/03/04 01:44:15;;;;;;;7.88;1.88;;;5.80;85.80;;;;;;5052471;28;20231;-45
2023/03/04 01:46:50;;;;;;;10.73;1.55;;;5.80;85.80;;;;;;5049812;28;20516;-45
2023/03/04 01:49:18;;;;;;;10.70;2.17;;;5.80;85.80;;;;;;5041561;28;20036;-45
2023/03/04 01:51:55;;;;;;;14.25;2.92;;;5.90;86.00;;;;;;5051599;28;20091;-47
2023/03/04 01:54:21;;;;;;;12.38;3.50;;;5.80;86.10;;;;;;5049975;28;20112;-46
2023/03/04 01:56:51;;;;;;;14.10;3.35;;;5.80;86.00;;;;;;5046360;28;20029;-46
2023/03/04 01:59:37;;;;;;;8.30;1.95;;;5.90;86.10;;;;;;5031585;28;20030;-46
2023/03/04 02:02:04;;;;;;;10.18;2.42;;;5.90;86.20;;;;;;5049469;28;20041;-46
2023/03/04 02:04:34;;;;;;;11.27;2.17;;;5.90;86.30;;;;;;5033788;28;20029;-45
2023/03/04 02:07:03;;;;;;;7.35;1.23;;;5.90;86.20;;;;;;5034414;28;20117;-44
2023/03/04 02:09:31;;;;;;;8.55;1.95;;;5.90;86.20;;;;;;5042757;28;20025;-46
2023/03/04 02:12:00;;;;;;;13.73;2.03;;;5.90;86.00;;;;;;5055299;28;20057;-47
2023/03/04 02:14:28;;;;;;;10.52;1.90;;;5.90;85.90;;;;;;5054448;28;20039;-47
2023/03/04 02:16:54;;;;;;;14.27;2.58;;;5.90;85.90;;;;;;5067573;28;20040;-47
2023/03/04 02:19:26;;;;;;;14.98;2.45;;;5.90;85.90;;;;;;5034692;28;20029;-45
2023/03/04 02:21:54;;;;;;;9.32;2.50;;;5.90;86.10;;;;;;5047911;28;20121;-46
2023/03/04 02:24:29;;;;;;;10.40;2.17;;;5.90;86.30;;;;;;5039498;28;20021;-45
2023/03/04 02:26:56;;;;;;;12.30;3.25;;;5.90;86.40;;;;;;5053710;28;20041;-45
2023/03/04 02:29:23;;;;;;;14.23;2.22;;;5.90;86.40;;;;;;5055854;28;20033;-45
2023/03/04 02:31:52;;;;;;;14.32;3.15;;;5.90;86.60;;;;;;5053028;28;20171;-46
2023/03/04 02:34:30;;;;;;;12.55;2.88;;;5.90;86.60;;;;;;5050200;28;20069;-45
2023/03/04 02:36:56;;;;;;;13.57;1.73;;;5.90;86.60;;;;;;5054772;28;20116;-46
2023/03/04 02:39:45;;;;;;;13.07;2.58;;;5.90;86.70;;;;;;5043873;28;20029;-45
2023/03/04 02:42:14;;;;;;;9.57;2.05;;;5.90;86.60;;;;;;5055440;28;20083;-46
2023/03/04 02:44:47;;;;;;;9.80;1.83;;;5.90;86.50;;;;;;5054853;28;20112;-46
2023/03/04 02:47:19;;;;;;;14.07;2.30;;;6.00;86.40;;;;;;5037613;28;20397;-46
2023/03/04 02:49:48;;;;;;;10.90;1.95;;;6.00;86.30;;;;;;5054422;28;20151;-45
2023/03/04 02:52:21;;;;;;;12.23;2.90;;;5.90;86.40;;;;;;5054340;28;20029;-45
2023/03/04 02:54:48;;;;;;;12.80;1.88;;;5.90;86.40;;;;;;5035707;28;20044;-47
2023/03/04 02:57:16;;;;;;;10.25;2.00;;;6.00;86.50;;;;;;5054971;28;20057;-45
2023/03/04 02:59:42;;;;;;;21.02;2.65;;;6.00;86.50;;;;;;5054591;28;20060;-48
2023/03/04 03:02:12;;;;;;;10.05;1.80;;;6.00;86.60;;;;;;5052949;28;20064;-46
2023/03/04 03:04:40;;;;;;;8.02;1.80;;;6.00;86.70;;;;;;5053461;28;20044;-46
2023/03/04 03:07:07;;;;;;;9.18;1.83;;;6.00;86.70;;;;;;5036454;28;20492;-47
2023/03/04 03:09:33;;;;;;;10.82;1.90;;;6.00;86.70;;;;;;5036210;28;20036;-47
2023/03/04 03:12:02;;;;;;;10.20;1.90;;;6.00;86.70;;;;;;5041088;28;20032;-47
2023/03/04 03:14:30;;;;;;;10.57;2.07;;;6.00;87.00;;;;;;5035186;28;20033;-46
2023/03/04 03:16:56;;;;;;;14.63;1.70;;;6.00;87.40;;;;;;5033864;28;20427;-45
2023/03/04 03:19:23;;;;;;;12.93;2.10;;;6.00;87.70;;;;;;5037193;28;20100;-46
2023/03/04 03:21:50;;;;;;;16.38;2.15;;;6.00;88.10;;;;;;5034868;28;20033;-45
2023/03/04 03:24:16;;;;;;;17.25;4.93;;;5.90;88.50;;;;;;5033579;28;20033;-47
2023/03/04 03:26:43;;;;;;;13.13;3.60;;;5.90;89.00;;;;;;5050317;28;20020;-49
2023/03/04 03:29:10;;;;;;;9.93;1.88;;;5.90;89.40;;;;;;5049000;28;20095;-45
2023/03/04 03:31:39;;;;;;;9.63;1.63;;;5.90;89.60;;;;;;5046792;28;20104;-45
2023/03/04 03:34:08;;;;;;;14.02;2.90;;;5.80;89.80;;;;;;5053420;28;20331;-45
2023/03/04 03:36:48;;;;;;;15.57;2.88;;;5.90;89.90;;;;;;5054552;28;20032;-48
2023/03/04 03:39:16;;;;;;;9.90;2.15;;;5.80;89.90;;;;;;5034593;28;20159;-45
2023/03/04 03:41:42;;;;;;;6.72;1.52;;;5.80;90.00;;;;;;5047785;28;20115;-45
2023/03/04 03:44:09;;;;;;;6.32;1.42;;;5.80;90.30;;;;;;5054256;28;20104;-44
2023/03/04 03:46:36;;;;;;;11.20;1.50;;;5.80;90.60;;;;;;5036271;28;20056;-47
2023/03/04 03:49:03;;;;;;;8.80;1.40;;;5.80;90.80;;;;;;5034352;28;20077;-46
2023/03/04 03:51:31;;;;;;;9.10;1.55;;;5.80;91.20;;;;;;5033390;28;20087;-46
2023/03/04 03:53:57;;;;;;;9.18;1.60;;;5.70;91.40;;;;;;5035827;28;20397;-45
2023/03/04 03:56:22;;;;;;;11.25;2.25;;;5.70;91.60;;;;;;5041786;28;20032;-46
2023/03/04 03:58:50;;;;;;;11.38;1.95;;;5.70;91.90;;;;;;5038552;28;20037;-46
2023/03/04 04:01:18;;;;;;;8.95;1.48;;;5.70;92.10;;;;;;5034133;28;20037;-45
2023/03/04 04:03:46;;;;;;;9.40;1.95;;;5.70;92.30;;;;;;5033726;28;20046;-45
2023/03/04 04:06:12;;;;;;;11.48;2.10;;;5.60;92.50;;;;;;5034005;28;20394;-45
2023/03/04 04:08:40;;;;;;;8.70;2.30;;;5.60;92.70;;;;;;5051726;28;20040;-45
2023/03/04 04:11:11;;;;;;;11.80;2.60;;;5.60;92.90;;;;;;5052401;28;20082;-44
2023/03/04 04:13:38;;;;;;;14.88;2.33;;;5.60;93.10;;;;;;5035323;28;20145;-44
2023/03/04 04:16:06;;;;;;;18.08;3.60;;;5.60;93.30;;;;;;5053858;28;20497;-45
2023/03/04 04:18:33;;;;;;;17.60;3.03;;;5.60;93.40;;;;;;5027216;28;20443;-44
2023/03/04 04:21:02;;;;;;;13.55;3.65;;;5.60;93.50;;;;;;5033746;28;20028;-48
2023/03/04 04:23:34;;;;;;;10.60;1.88;;;5.60;93.60;;;;;;5045539;28;20584;-46
2023/03/04 04:26:02;;;;;;;13.70;2.50;;;5.60;93.60;;;;;;5048790;28;20414;-44
2023/03/04 04:28:31;;;;;;;14.32;2.50;;;5.60;93.60;;;;;;5052806;28;20025;-44
2023/03/04 04:30:57;;;;;;;18.17;2.72;;;5.60;93.70;;;;;;5024498;28;20481;-44
2023/03/04 04:33:24;;;;;;;11.23;2.40;;;5.60;93.70;;;;;;5033185;28;20037;-45
2023/03/04 04:35:53;;;;;;;20.42;4.90;;;5.60;93.70;;;;;;5048787;28;20033;-44
2023/03/04 04:38:20;;;;;;;13.27;2.60;;;5.60;93.70;;;;;;5032264;28;20029;-46
2023/03/04 04:40:50;;;;;;;14.82;2.83;;;5.60;93.60;;;;;;5033078;28;20454;-44
2023/03/04 04:43:18;;;;;;;14.15;3.00;;;5.60;93.40;;;;;;5051212;28;20430;-43
2023/03/04 04:45:43;;;;;;;17.55;4.45;;;5.60;93.20;;;;;;5047721;28;20029;-44
2023/03/04 04:48:10;;;;;;;14.77;2.58;;;5.60;92.90;;;;;;5033502;28;20032;-48
2023/03/04 04:50:36;;;;;;;23.55;5.00;;;5.50;92.60;;;;;;5038517;28;20465;-46
2023/03/04 04:53:06;;;;;;;16.15;3.05;;;5.60;92.40;;;;;;5051522;28;20036;-46
2023/03/04 04:55:33;;;;;;;11.07;2.60;;;5.50;92.30;;;;;;5052361;28;20031;-46
2023/03/04 04:58:00;;;;;;;15.70;3.28;;;5.60;92.00;;;;;;5047145;28;20033;-45
2023/03/04 05:00:28;;;;;;;15.30;2.38;;;5.60;91.90;;;;;;5047655;28;20125;-46
2023/03/04 05:02:56;;;;;;;19.40;3.88;;;5.60;91.90;;;;;;5032753;28;20366;-46
2023/03/04 05:05:24;;;;;;;16.33;2.60;;;5.60;91.90;;;;;;5045122;28;20129;-45
2023/03/04 05:07:50;;;;;;;19.58;2.65;;;5.60;92.10;;;;;;5051789;28;20096;-46
2023/03/04 05:10:17;;;;;;;14.15;2.80;;;5.60;92.30;;;;;;5051815;28;20083;-45
2023/03/04 05:12:43;;;;;;;15.98;2.42;;;5.60;92.50;;;;;;5051057;28;20367;-47
2023/03/04 05:15:12;;;;;;;20.73;3.92;;;5.60;92.70;;;;;;5032032;28;20651;-46
2023/03/04 05:17:37;;;;;;;20.02;2.75;;;5.60;92.90;;;;;;5031965;28;20037;-49
2023/03/04 05:20:05;;;;;;;14.13;1.77;;;5.60;93.10;;;;;;5033098;28;20021;-45
2023/03/04 05:22:31;;;;;;;11.85;2.50;;;5.60;93.40;;;;;;5032897;28;20029;-45
2023/03/04 05:24:59;;;;;;;9.57;1.63;;;5.50;93.50;;;;;;5043431;28;20021;-49
2023/03/04 05:27:29;;;;;;;14.13;2.47;;;5.50;93.70;;;;;;5037732;28;20029;-46
2023/03/04 05:30:01;;;;;;;10.25;2.08;;;5.50;93.80;;;;;;5050817;28;20053;-47
2023/03/04 05:32:29;;;;;;;12.43;2.78;;;5.50;93.90;;;;;;5032453;28;20022;-48
2023/03/04 05:34:55;;;;;;;15.48;2.15;;;5.40;93.90;;;;;;5050080;28;20795;-45
2023/03/04 05:37:22;;;;;;;15.98;2.67;;;5.40;93.90;;;;;;5052731;28;20083;-44
2023/03/04 05:39:49;;;;;;;15.85;3.03;;;5.30;93.80;;;;;;5053710;28;20029;-47
2023/03/04 05:42:16;;;;;;;17.20;2.88;;;5.30;93.80;;;;;;5055216;28;20028;-45
2023/03/04 05:44:42;;;;;;;21.95;3.08;;;5.20;93.80;;;;;;5036717;28;20482;-48
2023/03/04 05:47:10;;;;;;;23.80;3.53;;;5.20;93.80;;;;;;5036873;28;20037;-46
2023/03/04 05:49:39;;;;;;;16.65;3.05;;;5.20;93.80;;;;;;5036747;28;20091;-45
2023/03/04 05:52:08;;;;;;;21.23;3.45;;;5.20;93.80;;;;;;5047317;28;20041;-45
2023/03/04 05:54:34;;;;;;;30.98;4.68;;;5.30;93.90;;;;;;5038730;28;20083;-48
2023/03/04 05:57:02;;;;;;;18.67;3.00;;;5.30;93.90;;;;;;5054971;28;20052;-47
2023/03/04 05:59:30;;;;;;;21.80;3.83;;;5.40;93.90;;;;;;5051084;28;20805;-48
2023/03/04 06:01:57;;;;;;;23.83;5.18;;;5.40;93.90;;;;;;5036370;28;20025;-46
2023/03/04 06:04:24;;;;;;;20.48;3.75;;;5.40;93.60;;;;;;5036085;28;20125;-48
2023/03/04 06:06:49;;;;;;;22.23;5.28;;;5.30;92.80;;;;;;5036181;28;20025;-45
2023/03/04 06:09:19;;;;;;;16.88;3.20;;;5.20;91.40;;;;;;5036300;28;20091;-45
2023/03/04 06:11:46;;;;;;;19.30;3.47;;;5.20;90.60;;;;;;5046446;28;20040;-46
2023/03/04 06:14:13;;;;;;;20.40;4.32;;;5.30;90.20;;;;;;5056060;28;20462;-45
2023/03/04 06:16:40;;;;;;;25.08;3.95;;;5.30;89.80;;;;;;5044903;28;20108;-45
2023/03/04 06:19:06;;;;;;;23.55;5.60;;;5.30;89.50;;;;;;5035983;28;20064;-47
2023/03/04 06:21:32;;;;;;;28.30;5.55;;;5.40;89.00;;;;;;5034833;28;20072;-47
2023/03/04 06:23:58;;;;;;;15.77;4.05;;;5.40;88.10;;;;;;5035940;28;20033;-45
2023/03/04 06:26:26;;;;;;;19.27;4.35;;;5.40;86.80;;;;;;5054736;28;20025;-44
2023/03/04 06:28:55;;;;;;;15.55;3.97;;;5.50;86.10;;;;;;5054326;28;20024;-45
2023/03/04 06:31:24;;;;;;;14.20;3.83;;;5.50;86.80;;;;;;5035369;28;20032;-45
2023/03/04 06:33:55;;;;;;;24.05;3.63;;;5.50;85.90;;;;;;5048301;28;20029;-44
2023/03/04 06:36:21;;;;;;;21.65;5.28;;;5.40;84.00;;;;;;5035703;28;20121;-44
2023/03/04 06:38:48;;;;;;;20.27;5.35;;;5.40;84.20;;;;;;5034955;28;20104;-44
2023/03/04 06:41:16;;;;;;;26.15;5.63;;;5.40;83.70;;;;;;5048498;28;20037;-44
2023/03/04 06:43:42;;;;;;;23.00;5.72;;;5.40;82.40;;;;;;5055244;28;20100;-45
2023/03/04 06:46:08;;;;;;;15.82;3.75;;;5.40;83.00;;;;;;5055632;28;20021;-44
2023/03/04 06:48:35;;;;;;;19.83;3.50;;;5.40;83.10;;;;;;5053298;28;20082;-44
2023/03/04 06:51:10;;;;;;;20.67;3.35;;;5.40;82.20;;;;;;5034367;28;20022;-45
2023/03/04 06:53:37;;;;;;;15.02;3.20;;;5.40;81.80;;;;;;5037310;28;20046;-45
2023/03/04 06:56:08;;;;;;;16.50;4.00;;;5.50;81.70;;;;;;5044826;28;20096;-46
2023/03/04 06:58:34;;;;;;;13.20;3.45;;;5.50;81.90;;;;;;5039006;28;20060;-45
2023/03/04 07:01:30;;;;;;;20.23;3.63;;;5.50;81.90;;;;;;5035173;28;20037;-44
2023/03/04 07:03:57;;;;;;;16.13;3.67;;;5.50;81.60;;;;;;5030072;28;20439;-44
2023/03/04 07:06:26;;;;;;;19.25;4.38;;;5.60;81.80;;;;;;5043615;28;20140;-44
2023/03/04 07:08:56;;;;;;;15.93;4.00;;;5.60;82.20;;;;;;5037856;28;20048;-46
2023/03/04 07:11:24;;;;;;;16.25;3.95;;;5.60;82.90;;;;;;5053043;28;20033;-44
2023/03/04 07:13:54;;;;;;;27.08;6.22;;;5.60;83.50;;;;;;5038282;28;20037;-45
2023/03/04 07:16:30;;;;;;;13.93;2.65;;;5.60;83.20;;;;;;5033769;28;20106;-45
2023/03/04 07:18:59;;;;;;;18.02;3.15;;;5.60;81.00;;;;;;5033837;28;20030;-44
2023/03/04 07:21:28;;;;;;;21.75;4.10;;;5.60;81.30;;;;;;5052960;28;20431;-44
2023/03/04 07:23:54;;;;;;;12.45;3.35;;;5.70;81.10;;;;;;5053001;28;20033;-44
2023/03/04 07:26:21;;;;;;;16.83;3.92;;;5.70;81.80;;;;;;5049771;28;20040;-44
2023/03/04 07:28:51;;;;;;;23.15;3.85;;;5.70;83.00;;;;;;5054725;28;20029;-43
2023/03/04 07:31:37;;;;;;;15.93;3.33;;;5.70;83.80;;;;;;5053275;28;20032;-44
2023/03/04 07:34:10;;;;;;;18.15;2.67;;;5.70;84.40;;;;;;5053464;28;20029;-44
2023/03/04 07:36:37;;;;;;;14.27;2.67;;;5.60;84.50;;;;;;5054475;28;20029;-46
2023/03/04 07:39:06;;;;;;;13.55;3.03;;;5.60;84.40;;;;;;5036820;28;20037;-44
2023/03/04 07:41:38;;;;;;;18.20;3.80;;;5.60;84.50;;;;;;5040826;28;20346;-45
2023/03/04 07:44:07;;;;;;;16.10;2.75;;;5.60;84.70;;;;;;5054247;28;20290;-45
2023/03/04 07:46:34;;;;;;;18.23;3.40;;;5.60;84.70;;;;;;5041848;28;20041;-45
2023/03/04 07:49:01;;;;;;;14.88;3.83;;;5.60;84.70;;;;;;5046760;28;20071;-45
2023/03/04 07:51:28;;;;;;;21.60;3.95;;;5.60;84.90;;;;;;5053339;28;20029;-45
2023/03/04 07:54:00;;;;;;;22.95;4.78;;;5.60;85.60;;;;;;5040201;28;20029;-44
2023/03/04 07:56:30;;;;;;;20.80;3.72;;;5.50;86.30;;;;;;5049972;28;20068;-47
2023/03/04 07:58:57;;;;;;;20.95;3.72;;;5.50;84.90;;;;;;5033347;28;20060;-46
2023/03/04 08:01:30;;;;;;;29.85;4.63;;;5.40;83.90;;;;;;5041309;28;20027;-45
2023/03/04 08:03:57;;;;;;;31.85;6.45;;;5.40;84.10;;;;;;5061823;28;20143;-45
2023/03/04 08:06:27;;;;;;;20.50;4.63;;;5.50;84.60;;;;;;5053869;28;20098;-45
2023/03/04 08:08:58;;;;;;;19.73;3.67;;;5.40;85.10;;;;;;5054134;28;20021;-45
2023/03/04 08:11:29;;;;;;;22.52;3.60;;;5.50;84.30;;;;;;5041053;28;20045;-45
2023/03/04 08:13:57;;;;;;;14.35;3.08;;;5.50;82.50;;;;;;5050215;28;20043;-44
2023/03/04 08:16:27;;;;;;;15.85;3.83;;;5.50;81.70;;;;;;5053114;28;20025;-45
2023/03/04 08:18:56;;;;;;;20.77;4.75;;;5.50;80.80;;;;;;5042021;28;20030;-45
2023/03/04 08:21:26;;;;;;;19.00;4.00;;;5.50;80.30;;;;;;5033641;28;20074;-45
2023/03/04 08:23:56;;;;;;;30.15;6.15;;;5.50;80.20;;;;;;5033678;28;20025;-45
2023/03/04 08:26:37;;;;;;;23.40;5.13;;;5.50;80.50;;;;;;5034486;28;20053;-45
2023/03/04 08:29:06;;;;;;;25.40;5.82;;;5.50;80.90;;;;;;5033888;28;20033;-45
2023/03/04 08:31:33;;;;;;;18.98;5.20;;;5.60;80.30;;;;;;5033306;28;20083;-45
2023/03/04 08:34:03;;;;;;;15.38;4.65;;;5.60;78.30;;;;;;5032600;28;20061;-45
2023/03/04 08:36:30;;;;;;;13.93;3.45;;;5.60;76.40;;;;;;5032777;28;20417;-50
2023/03/04 08:38:58;;;;;;;15.98;4.20;;;5.60;77.40;;;;;;5047590;28;20032;-45
2023/03/04 08:41:26;;;;;;;17.75;3.67;;;5.60;78.30;;;;;;5046851;28;20383;-51
2023/03/04 08:43:52;;;;;;;19.75;5.85;;;5.60;80.70;;;;;;5033263;28;20032;-47
2023/03/04 08:46:20;;;;;;;26.33;4.38;;;5.50;80.40;;;;;;5032022;28;20359;-46
2023/03/04 08:48:48;;;;;;;16.08;3.60;;;5.50;79.20;;;;;;5042384;28;20033;-45
2023/03/04 08:51:21;;;;;;;19.23;3.95;;;5.50;79.30;;;;;;5052016;28;20048;-50
2023/03/04 08:53:47;;;;;;;21.27;4.50;;;5.50;78.30;;;;;;5050627;28;20358;-45
2023/03/04 08:56:17;;;;;;;18.83;3.65;;;5.60;77.50;;;;;;5053134;28;20029;-45
2023/03/04 08:58:50;;;;;;;14.25;2.90;;;5.60;77.80;;;;;;5046437;28;20036;-45
2023/03/04 09:01:21;;;;;;;12.90;3.72;;;5.70;77.10;;;;;;5048851;28;20067;-46
2023/03/04 09:03:47;;;;;;;22.13;3.25;;;5.70;77.20;;;;;;5052717;28;20068;-46
2023/03/04 09:06:15;;;;;;;22.38;3.83;;;5.70;77.20;;;;;;5051281;28;20527;-47
2023/03/04 09:08:43;;;;;;;19.35;3.75;;;5.70;77.40;;;;;;5014714;28;20040;-52
2023/03/04 09:11:11;;;;;;;18.40;5.78;;;5.70;77.00;;;;;;5048209;28;20040;-45
2023/03/04 09:13:42;;;;;;;15.60;3.80;;;5.70;75.90;;;;;;5050232;28;20029;-46
2023/03/04 09:16:13;;;;;;;16.25;5.50;;;5.90;76.00;;;;;;5051630;28;20334;-45
2023/03/04 09:18:40;;;;;;;18.13;5.07;;;5.90;76.20;;;;;;5037835;28;20454;-45
2023/03/04 09:21:08;;;;;;;13.27;3.15;;;5.90;75.60;;;;;;5033891;28;20129;-45
2023/03/04 09:23:38;;;;;;;20.65;4.20;;;5.90;76.20;;;;;;5050069;28;20082;-45
2023/03/04 09:26:21;;;;;;;23.55;4.35;;;5.90;76.10;;;;;;5050586;28;20037;-47
2023/03/04 09:28:58;;;;;;;19.85;3.65;;;5.90;76.30;;;;;;5045714;28;20033;-47
2023/03/04 09:31:28;;;;;;;16.35;3.70;;;5.90;76.90;;;;;;5031816;28;20037;-45
2023/03/04 09:33:57;;;;;;;18.10;3.72;;;5.90;77.00;;;;;;5035839;28;20359;-45
2023/03/04 09:36:23;;;;;;;21.50;4.78;;;5.70;79.30;;;;;;5031704;28;20045;-47
2023/03/04 09:38:49;;;;;;;24.85;4.22;;;5.60;81.70;;;;;;5036230;28;20029;-47
2023/03/04 09:41:24;;;;;;;32.58;6.43;;;5.50;82.40;;;;;;5051351;28;20043;-46
2023/03/04 09:43:51;;;;;;;21.35;4.97;;;5.40;82.40;;;;;;5052644;28;20037;-44
2023/03/04 09:46:37;;;;;;;19.65;3.80;;;5.50;83.00;;;;;;5047368;28;20120;-45
2023/03/04 09:49:06;;;;;;;19.05;3.97;;;5.50;82.70;;;;;;5032916;28;20030;-45
2023/03/04 09:51:45;;;;;;;21.88;3.92;;;5.60;83.10;;;;;;5046832;28;20044;-46
2023/03/04 09:54:57;;;;;;;23.48;4.50;;;5.60;81.00;;;;;;5046761;28;20021;-45
2023/03/04 09:57:47;;;;;;;21.23;5.55;;;5.60;78.10;;;;;;5052611;28;20021;-45
2023/03/04 10:00:18;;;;;;;17.13;3.70;;;5.70;78.30;;;;;;5051614;28;20033;-45
2023/03/04 10:03:00;;;;;;;16.75;3.60;;;5.80;77.90;;;;;;5048503;28;20053;-45
2023/03/04 10:05:31;;;;;;;19.58;5.03;;;5.90;77.60;;;;;;5040075;28;20077;-46
2023/03/04 10:08:11;;;;;;;18.10;4.63;;;6.20;78.20;;;;;;5034943;28;20853;-46
2023/03/04 10:10:42;;;;;;;16.90;3.67;;;6.30;77.30;;;;;;5032581;28;20122;-47
2023/03/04 10:13:44;;;;;;;13.07;3.30;;;6.50;77.50;;;;;;5048599;28;20029;-47
2023/03/04 10:16:16;;;;;;;20.30;3.75;;;6.50;74.00;;;;;;5046979;28;20049;-45
2023/03/04 10:18:50;;;;;;;22.17;5.30;;;6.40;74.00;;;;;;5035355;28;20033;-47
2023/03/04 10:21:31;;;;;;;17.73;4.05;;;6.40;73.80;;;;;;5050011;28;20120;-45
2023/03/04 10:24:13;;;;;;;22.73;5.03;;;6.40;73.50;;;;;;5049494;28;20041;-46
2023/03/04 10:26:53;;;;;;;20.80;3.47;;;6.20;73.50;;;;;;5053243;28;20120;-46
2023/03/04 10:29:23;;;;;;;13.60;4.18;;;6.30;75.30;;;;;;5055891;28;20025;-46
2023/03/04 10:31:54;;;;;;;23.63;5.20;;;6.30;75.00;;;;;;5042436;28;20029;-46
2023/03/04 10:34:22;;;;;;;19.85;4.50;;;6.30;75.50;;;;;;5035143;28;20037;-46
2023/03/04 10:37:21;;;;;;;17.58;3.92;;;6.30;76.20;;;;;;5052954;28;20025;-47
2023/03/04 10:39:51;;;;;;;25.88;4.85;;;6.40;76.80;;;;;;5044630;28;20095;-46
2023/03/04 10:42:36;;;;;;;23.48;4.82;;;6.60;76.20;;;;;;5054762;28;20044;-47
2023/03/04 10:45:03;;;;;;;17.05;3.72;;;6.70;73.40;;;;;;5054169;28;20029;-46
2023/03/04 10:47:32;;;;;;;20.48;5.75;;;6.70;73.30;;;;;;5054772;28;20402;-46
2023/03/04 10:50:02;;;;;;;13.85;4.00;;;6.80;72.30;;;;;;5054481;28;20032;-46
2023/03/04 10:52:48;;;;;;;18.40;3.50;;;6.60;73.70;;;;;;5054610;28;20072;-47
2023/03/04 10:55:18;;;;;;;15.02;3.20;;;6.40;77.70;;;;;;5033535;28;20435;-46
2023/03/04 10:57:51;;;;;;;29.35;4.38;;;6.00;80.40;;;;;;5034647;28;20132;-45
2023/03/04 11:00:23;;;;;;;23.48;4.18;;;6.00;82.20;;;;;;5052621;28;20476;-49
2023/03/04 11:02:50;;;;;;;20.75;4.93;;;5.90;81.80;;;;;;5039813;28;20350;-47
2023/03/04 11:05:34;;;;;;;16.50;4.38;;;5.60;82.20;;;;;;5054038;28;20526;-46
2023/03/04 11:08:02;;;;;;;22.35;4.18;;;5.30;83.90;;;;;;5039220;28;20025;-47
2023/03/04 11:10:37;;;;;;;19.83;4.82;;;5.30;85.10;;;;;;5037596;28;20030;-44
2023/03/04 11:13:24;;;;;;;28.02;6.25;;;5.30;85.00;;;;;;5034685;28;20347;-46
2023/03/04 11:16:29;;;;;;;27.10;5.32;;;5.40;84.90;;;;;;5050163;28;20095;-45
2023/03/04 11:19:24;;;;;;;17.00;3.58;;;5.70;83.60;;;;;;5070363;28;20454;-45
2023/03/04 11:21:54;;;;;;;17.17;3.90;;;5.90;82.70;;;;;;5032782;28;20418;-46
2023/03/04 11:24:25;;;;;;;;;;;6.00;80.20;;;;;;5055358;28;20382;-45
2023/03/04 11:27:05;;;;;;;17.33;4.32;;;6.10;79.50;;;;;;5051438;28;19913;-45
2023/03/04 11:29:59;;;;;;;16.70;4.00;;;6.10;78.70;;;;;;5033788;28;20025;-46
2023/03/04 11:32:33;;;;;;;14.95;3.63;;;6.30;78.10;;;;;;5034580;28;20564;-46
2023/03/04 11:35:34;;;;;;;19.92;4.10;;;6.30;76.80;;;;;;5036912;28;20041;-48
2023/03/04 11:38:20;;;;;;;23.00;4.47;;;6.50;76.60;;;;;;5033531;28;20083;-46
2023/03/04 11:41:04;;;;;;;19.55;3.35;;;6.70;76.80;;;;;;5041689;28;20041;-46
2023/03/04 11:43:57;;;;;;;30.20;5.47;;;6.80;74.30;;;;;;5032252;28;20364;-48
2023/03/04 11:47:25;;;;;;;28.60;4.75;;;6.90;75.30;;;;;;5030013;28;20431;-45
2023/03/04 11:50:02;;;;;;;13.30;4.05;;;6.70;76.40;;;;;;5020679;28;20056;-46
2023/03/04 11:52:45;;;;;;;17.63;3.90;;;6.50;76.70;;;;;;5016843;28;20458;-46
2023/03/04 11:55:38;;;;;;;20.92;4.57;;;6.40;76.50;;;;;;5049798;28;20036;-46
2023/03/04 11:58:13;;;;;;;25.92;4.63;;;6.30;77.70;;;;;;5041690;28;20033;-46
2023/03/04 12:01:15;;;;;;;22.67;4.38;;;6.50;77.90;;;;;;5053039;28;20032;-45
2023/03/04 12:04:21;;;;;;;21.25;5.05;;;6.60;78.40;;;;;;5042195;28;20107;-48
2023/03/04 12:07:17;;;;;;;20.45;4.28;;;6.60;74.60;;;;;;5033837;28;20334;-45
2023/03/04 12:10:29;;;;;;;17.58;3.63;;;6.70;75.10;;;;;;5033889;28;20387;-50
2023/03/04 12:13:18;;;;;;;19.25;3.83;;;6.70;75.90;;;;;;5025819;28;20144;-46
2023/03/04 12:16:09;;;;;;;20.45;5.03;;;6.70;73.80;;;;;;5033800;28;20025;-47
2023/03/04 12:19:03;;;;;;;25.77;7.40;;;6.70;73.40;;;;;;5032837;28;20021;-46
2023/03/04 12:21:38;;;;;;;15.48;3.75;;;6.70;72.20;;;;;;5032469;28;20026;-49
2023/03/04 12:24:26;;;;;;;16.40;3.28;;;6.50;69.50;;;;;;5048115;28;20067;-46
2023/03/04 12:27:26;;;;;;;13.30;3.30;;;6.40;69.40;;;;;;5033142;28;20038;-46
2023/03/04 12:30:28;;;;;;;14.43;4.35;;;6.40;70.30;;;;;;5036364;28;20060;-47
2023/03/04 12:33:11;;;;;;;16.40;3.78;;;6.40;73.30;;;;;;5049151;28;20022;-49
2023/03/04 12:35:56;;;;;;;20.90;4.28;;;6.30;73.80;;;;;;5049145;28;20115;-46
2023/03/04 12:38:46;;;;;;;18.20;5.53;;;6.30;74.10;;;;;;5035033;28;20021;-47
2023/03/04 12:41:31;;;;;;;;;;;6.40;74.30;;;;;;5019302;28;20124;-49
2023/03/04 12:44:15;;;;;;;16.17;3.42;;;6.20;74.90;;;;;;5053050;28;19923;-48
2023/03/04 12:47:15;;;;;;;13.27;2.92;;;5.90;79.00;;;;;;5048901;28;20055;-45
2023/03/04 12:50:04;;;;;;;17.00;4.60;;;5.40;81.20;;;;;;5047448;28;20022;-48
2023/03/04 12:52:53;;;;;;;14.45;4.00;;;5.30;83.00;;;;;;5032111;28;20084;-46
2023/03/04 12:55:32;;;;;;;16.50;4.47;;;5.40;84.30;;;;;;5017484;28;20124;-44
2023/03/04 12:58:00;;;;;;;21.33;5.57;;;5.50;82.20;;;;;;5033267;28;20037;-47
2023/03/04 13:00:59;;;;;;;20.30;5.68;;;5.60;82.40;;;;;;5051051;28;20126;-45
2023/03/04 13:03:56;;;;;;;20.02;5.68;;;5.80;81.50;;;;;;5046491;28;20052;-46
2023/03/04 13:06:47;;;;;;;14.15;4.53;;;5.90;80.90;;;;;;5048363;28;20071;-46
2023/03/04 13:09:56;;;;;;;15.15;4.00;;;5.80;79.40;;;;;;5040861;28;20026;-45
2023/03/04 13:12:24;;;;;;;16.08;3.40;;;5.90;80.40;;;;;;5036902;28;20040;-46
2023/03/04 13:15:09;;;;;;;17.25;3.53;;;5.90;80.00;;;;;;5052590;28;20033;-47